createdAt,value
2018-06-25T11:20:20.180Z,51.41
2018-06-25T11:21:28.084Z,50.74
2018-06-25T11:22:40.639Z,50.71
2018-06-25T11:23:47.573Z,51.51
2018-06-25T11:24:54.018Z,51.43
2018-06-25T11:26:00.837Z,51.57
2018-06-25T11:27:08.424Z,51.51
2018-06-25T11:28:15.032Z,51.16
2018-06-25T11:29:21.964Z,51.48
2018-06-25T11:30:33.666Z,51.67
2018-06-25T11:31:40.560Z,51.50
2018-06-25T11:32:47.732Z,51.72
2018-06-25T11:33:54.650Z,51.66
2018-06-25T11:35:06.840Z,51.10
2018-06-25T11:36:13.849Z,51.67
2018-06-25T11:37:26.098Z,51.34
2018-06-25T11:38:32.902Z,51.51
2018-06-25T11:39:40.467Z,52.40
2018-06-25T11:40:47.364Z,51.63
2018-06-25T11:41:54.443Z,52.51
2018-06-25T11:43:00.566Z,52.69
2018-06-25T11:44:07.444Z,52.14
2018-06-25T11:45:14.449Z,52.37
2018-06-25T11:46:21.604Z,52.78
2018-06-25T11:47:33.603Z,52.36
2018-06-25T11:48:40.528Z,52.53
2018-06-25T11:49:47.455Z,52.46
2018-06-25T11:50:59.410Z,52.93
2018-06-25T11:52:06.249Z,53.41
2018-06-25T11:53:13.144Z,53.68
2018-06-25T11:54:20.313Z,53.82
2018-06-25T11:55:32.498Z,53.34
2018-06-25T11:56:39.058Z,54.26
2018-06-25T11:57:51.031Z,54.16
2018-06-25T11:58:57.974Z,54.20
2018-06-25T12:00:05.070Z,54.09
2018-06-25T12:01:12.186Z,54.66
2018-06-25T12:02:18.956Z,54.40
2018-06-25T12:03:25.857Z,54.79
2018-06-25T12:04:39.345Z,54.83
2018-06-25T12:05:46.305Z,54.38
2018-06-25T12:06:52.831Z,55.23
2018-06-25T12:08:01.100Z,54.95
2018-06-25T12:09:10.195Z,54.65
2018-06-25T12:10:16.915Z,55.37
2018-06-25T12:11:23.651Z,54.83
2018-06-25T12:12:30.976Z,55.49
2018-06-25T12:13:37.631Z,55.31
2018-06-25T12:14:44.273Z,56.06
2018-06-25T12:15:50.827Z,56.27
2018-06-25T12:16:57.975Z,56.33
2018-06-25T12:18:04.756Z,55.61
2018-06-25T12:19:11.484Z,56.42
2018-06-25T12:20:18.008Z,56.86
2018-06-25T12:21:24.763Z,56.55
2018-06-25T14:48:20.662Z,56.63
2018-06-25T14:51:59.590Z,56.71
2018-06-25T14:53:06.546Z,56.57
2018-06-25T14:54:12.720Z,56.10
2018-06-25T14:55:18.891Z,56.91
2018-06-25T14:56:25.254Z,56.38
2018-06-25T14:57:31.638Z,56.46
2018-06-25T14:58:38.114Z,54.95
2018-06-25T14:59:44.337Z,55.52
2018-06-25T15:00:50.853Z,55.98
2018-06-25T15:01:57.072Z,55.50
2018-06-25T15:03:03.383Z,55.69
2018-06-25T15:04:09.872Z,55.51
2018-06-25T15:05:16.272Z,54.86
2018-06-25T15:06:22.390Z,54.11
2018-06-25T15:07:28.558Z,53.96
2018-06-25T15:08:34.646Z,53.61
2018-06-25T15:09:41.015Z,54.39
2018-06-25T15:10:47.204Z,53.38
2018-06-25T15:11:53.983Z,53.27
2018-06-25T15:13:00.417Z,53.20
2018-06-25T15:14:06.792Z,52.92
2018-06-25T15:15:12.998Z,53.09
2018-06-25T15:16:19.182Z,53.45
2018-06-25T15:17:25.614Z,52.67
2018-06-25T15:18:31.806Z,52.38
2018-06-25T15:19:37.970Z,52.77
2018-06-25T15:20:44.204Z,52.93
2018-06-25T15:21:50.762Z,52.65
2018-06-25T15:22:56.934Z,52.65
2018-06-25T15:24:03.200Z,52.65
2018-06-25T15:25:09.453Z,52.41
2018-06-25T15:26:15.721Z,52.29
2018-06-25T15:27:22.197Z,52.79
2018-06-25T15:28:28.872Z,53.41
2018-06-25T15:29:35.256Z,52.68
2018-06-25T15:30:41.468Z,52.34
2018-06-25T15:31:48.146Z,52.25
2018-06-25T15:32:54.607Z,52.20
2018-06-25T15:34:03.127Z,52.11
2018-06-25T15:35:09.401Z,52.36
2018-06-25T15:36:16.196Z,52.18
2018-06-25T15:37:22.426Z,52.46
2018-06-25T15:38:43.905Z,51.88
2018-06-25T15:39:50.739Z,52.50
2018-06-25T15:40:57.415Z,52.06
2018-06-25T15:42:03.652Z,51.63
2018-06-25T15:43:14.802Z,51.80
2018-06-25T15:44:24.383Z,51.81
2018-06-25T15:45:33.012Z,52.23
2018-06-25T15:46:39.123Z,52.28
2018-06-25T15:47:45.119Z,52.13
2018-06-25T15:48:56.545Z,52.26
2018-06-25T15:50:02.817Z,52.63
2018-06-25T15:51:09.073Z,52.38
2018-06-25T15:52:15.105Z,52.07
2018-06-25T15:53:27.041Z,52.12
2018-06-25T15:54:33.441Z,52.59
2018-06-25T15:55:43.053Z,53.16
2018-06-25T15:56:54.235Z,52.92
2018-06-25T15:58:00.565Z,52.79
2018-06-25T15:59:06.774Z,52.91
2018-06-25T16:00:13.139Z,53.09
2018-06-25T16:01:19.314Z,53.01
2018-06-25T16:02:25.477Z,52.96
2018-06-25T16:03:31.491Z,53.26
2018-06-25T16:04:42.803Z,53.52
2018-06-25T16:05:54.188Z,53.41
2018-06-25T16:07:00.476Z,52.76
2018-06-25T16:08:06.541Z,52.07
2018-06-25T16:09:12.846Z,52.29
2018-06-25T16:10:19.054Z,52.16
2018-06-25T16:11:25.185Z,51.84
2018-06-25T16:12:36.718Z,51.75
2018-06-25T16:13:42.918Z,51.21
2018-06-25T16:14:49.065Z,51.39
2018-06-25T16:15:55.374Z,51.48
2018-06-25T16:17:06.912Z,50.70
2018-06-25T16:18:13.136Z,51.78
2018-06-25T16:19:19.217Z,50.55
2018-06-25T16:20:25.618Z,51.45
2018-06-25T16:21:31.970Z,50.58
2018-06-25T16:22:38.248Z,51.24
2018-06-25T16:23:45.601Z,50.72
2018-06-25T16:24:51.722Z,51.12
2018-06-25T16:25:57.960Z,50.40
2018-06-25T16:27:04.242Z,51.06
2018-06-25T16:28:10.680Z,51.15
2018-06-25T16:29:18.333Z,50.44
2018-06-25T16:30:24.527Z,50.29
2018-06-25T16:31:30.824Z,50.25
2018-06-25T16:32:36.981Z,50.03
2018-06-25T16:33:43.078Z,49.53
2018-06-25T16:34:49.549Z,50.11
2018-06-25T16:35:55.790Z,49.71
2018-06-25T16:37:02.146Z,49.31
2018-06-25T16:38:08.334Z,48.97
2018-06-25T16:39:14.934Z,49.47
2018-06-25T16:40:21.175Z,49.83
2018-06-25T16:41:27.503Z,49.08
2018-06-25T16:42:33.788Z,49.67
2018-06-25T16:43:40.038Z,49.35
2018-06-25T16:44:46.466Z,49.10
2018-06-25T16:45:52.707Z,49.79
2018-06-25T16:47:00.957Z,49.41
2018-06-25T16:48:07.588Z,50.01
2018-06-25T16:49:16.366Z,50.10
2018-06-25T16:50:28.595Z,49.86
2018-06-25T16:51:39.688Z,49.59
2018-06-25T16:52:47.329Z,50.41
2018-06-25T16:53:54.773Z,49.97
2018-06-25T16:55:02.558Z,49.66
2018-06-25T16:56:08.836Z,50.15
2018-06-25T16:57:15.162Z,50.31
2018-06-25T16:58:21.380Z,49.61
2018-06-25T16:59:27.548Z,49.39
2018-06-25T17:00:33.936Z,49.22
2018-06-25T17:01:43.325Z,49.70
2018-06-25T17:02:50.307Z,49.28
2018-06-25T17:03:58.384Z,49.28
2018-06-25T17:05:04.635Z,49.28
2018-06-25T17:07:16.235Z,49.50
2018-06-25T17:08:22.415Z,49.73
2018-06-25T17:09:28.431Z,49.62
2018-06-25T17:10:42.674Z,49.97
2018-06-25T17:11:49.777Z,49.83
2018-06-25T17:12:55.976Z,49.96
2018-06-25T17:14:11.105Z,50.08
2018-06-25T17:15:33.746Z,49.94
2018-06-25T17:16:41.441Z,49.73
2018-06-25T17:17:47.488Z,49.77
2018-06-25T17:18:53.833Z,49.54
2018-06-25T17:20:01.264Z,50.43
2018-06-25T17:21:07.097Z,50.07
2018-06-25T17:22:12.979Z,49.60
2018-06-25T17:23:19.656Z,50.12
2018-06-25T17:24:25.874Z,49.94
2018-06-25T17:25:31.860Z,49.66
2018-06-25T17:26:38.363Z,49.39
2018-06-25T17:27:44.174Z,49.89
2018-06-25T17:28:50.105Z,49.94
2018-06-25T17:29:56.370Z,50.19
2018-06-25T17:31:04.703Z,49.43
2018-06-25T17:32:10.508Z,49.40
2018-06-25T17:33:16.546Z,50.02
2018-06-25T17:34:23.720Z,49.46
2018-06-25T17:35:33.619Z,49.93
2018-06-25T17:36:39.833Z,49.52
2018-06-25T17:37:45.879Z,49.61
2018-06-25T17:38:53.472Z,49.77
2018-06-25T17:39:59.675Z,49.05
2018-06-25T17:41:05.599Z,50.09
2018-06-25T17:42:11.678Z,49.65
2018-06-25T17:43:17.586Z,49.84
2018-06-25T17:44:25.725Z,50.02
2018-06-25T17:45:34.044Z,50.07
2018-06-25T17:46:40.854Z,50.10
2018-06-25T17:47:48.521Z,50.24
2018-06-25T17:48:54.709Z,49.84
2018-06-25T17:50:01.152Z,49.92
2018-06-25T17:51:08.605Z,50.13
2018-06-25T17:52:14.527Z,49.90
2018-06-25T17:53:23.154Z,50.49
2018-06-25T17:54:29.710Z,50.81
2018-06-25T17:55:37.236Z,50.02
2018-06-25T17:56:43.789Z,50.53
2018-06-25T17:57:49.864Z,50.00
2018-06-25T17:58:56.019Z,50.28
2018-06-25T18:00:02.234Z,50.89
2018-06-25T18:01:08.971Z,50.16
2018-06-25T18:02:15.360Z,50.83
2018-06-25T18:03:21.607Z,51.05
2018-06-25T18:04:28.622Z,51.22
2018-06-25T18:05:34.781Z,50.96
2018-06-25T18:06:41.585Z,50.76
2018-06-25T18:07:47.798Z,51.36
2018-06-25T18:08:54.204Z,50.94
2018-06-25T18:10:02.431Z,51.13
2018-06-25T18:11:11.120Z,51.34
2018-06-25T18:12:19.700Z,50.95
2018-06-25T18:13:26.986Z,50.20
2018-06-25T18:14:35.277Z,50.97
2018-06-25T18:15:42.547Z,50.98
2018-06-25T18:16:48.590Z,50.17
2018-06-25T18:17:54.663Z,50.20
2018-06-25T18:19:03.615Z,49.93
2018-06-25T18:20:09.795Z,50.14
2018-06-25T18:21:16.541Z,49.82
2018-06-25T18:22:22.661Z,49.62
2018-06-25T18:23:28.799Z,49.85
2018-06-25T18:24:36.131Z,49.65
2018-06-25T18:25:42.270Z,50.10
2018-06-25T18:26:49.168Z,49.58
2018-06-25T18:27:55.429Z,49.67
2018-06-25T18:29:01.405Z,49.27
2018-06-25T18:30:08.223Z,49.21
2018-06-25T18:31:16.099Z,49.27
2018-06-25T18:32:22.325Z,49.53
2018-06-25T18:33:28.445Z,48.87
2018-06-25T18:34:34.729Z,49.17
2018-06-25T18:35:42.843Z,49.50
2018-06-25T18:36:51.130Z,49.45
2018-06-25T18:37:57.141Z,49.70
2018-06-25T18:39:03.460Z,48.92
2018-06-25T18:40:10.232Z,49.29
2018-06-25T18:41:17.653Z,49.48
2018-06-25T18:42:23.781Z,49.39
2018-06-25T18:43:30.060Z,49.57
2018-06-25T18:44:36.307Z,49.83
2018-06-25T18:45:42.573Z,49.73
2018-06-25T18:46:49.597Z,49.88
2018-06-25T18:47:56.329Z,50.00
2018-06-25T18:49:08.993Z,49.54
2018-06-25T18:50:15.408Z,49.18
2018-06-25T18:51:22.285Z,49.22
2018-06-25T18:52:31.401Z,49.71
2018-06-25T18:53:49.033Z,49.64
2018-06-25T18:54:55.559Z,49.58
2018-06-25T18:56:01.572Z,49.70
2018-06-25T18:57:09.233Z,49.98
2018-06-25T18:58:15.393Z,49.21
2018-06-25T18:59:22.812Z,49.32
2018-06-25T19:00:29.842Z,49.57
2018-06-25T19:01:35.920Z,50.32
2018-06-25T19:02:42.158Z,49.68
2018-06-25T19:03:49.711Z,49.71
2018-06-25T19:05:10.593Z,50.45
2018-06-25T19:06:17.659Z,50.67
2018-06-25T19:07:27.143Z,50.82
2018-06-25T19:08:33.348Z,50.59
2018-06-25T19:09:39.461Z,50.36
2018-06-25T19:10:46.409Z,50.38
2018-06-25T19:12:01.613Z,50.85
2018-06-25T19:13:08.407Z,50.76
2018-06-25T19:14:14.531Z,50.33
2018-06-25T19:15:20.696Z,50.50
2018-06-25T19:16:26.781Z,50.46
2018-06-25T19:17:32.890Z,50.24
2018-06-25T19:18:39.011Z,50.48
2018-06-25T19:19:45.307Z,50.57
2018-06-25T19:20:51.303Z,50.14
2018-06-25T19:21:57.349Z,50.30
2018-06-25T19:23:05.236Z,50.55
2018-06-25T19:24:13.099Z,50.03
2018-06-25T19:25:19.663Z,49.61
2018-06-25T19:26:26.012Z,49.54
2018-06-25T19:27:38.645Z,49.23
2018-06-25T19:28:44.939Z,49.85
2018-06-25T19:29:52.082Z,49.58
2018-06-25T19:31:10.709Z,50.08
2018-06-25T19:32:17.417Z,49.72
2018-06-25T19:33:23.445Z,49.47
2018-06-25T19:34:30.046Z,49.53
2018-06-25T19:35:36.107Z,48.57
2018-06-25T19:36:43.202Z,48.87
2018-06-25T19:37:49.513Z,49.01
2018-06-25T19:38:56.292Z,48.90
2018-06-25T19:40:02.443Z,48.45
2018-06-25T19:41:08.901Z,48.82
2018-06-25T19:42:15.028Z,48.41
2018-06-25T19:43:21.438Z,48.31
2018-06-25T19:44:27.937Z,48.58
2018-06-25T19:45:35.207Z,49.00
2018-06-25T19:46:41.498Z,49.06
2018-06-25T19:47:48.360Z,48.63
2018-06-25T19:48:54.652Z,48.60
2018-06-25T19:50:00.772Z,48.24
2018-06-25T19:51:08.148Z,48.45
2018-06-25T19:52:14.409Z,48.88
2018-06-25T19:53:20.587Z,48.51
2018-06-25T19:54:26.663Z,48.75
2018-06-25T19:55:33.959Z,48.22
2018-06-25T19:56:41.145Z,47.81
2018-06-25T19:57:47.360Z,47.91
2018-06-25T19:58:53.707Z,47.88
2018-06-25T20:00:00.869Z,47.81
2018-06-25T20:01:08.341Z,47.41
2018-06-25T20:02:15.113Z,47.35
2018-06-25T20:03:21.055Z,47.57
2018-06-25T20:04:27.581Z,48.03
2018-06-25T20:05:35.218Z,47.36
2018-06-25T20:06:41.574Z,47.51
2018-06-25T20:07:49.173Z,47.69
2018-06-25T20:08:57.269Z,47.75
2018-06-25T20:10:04.181Z,47.68
2018-06-25T20:11:10.880Z,47.45
2018-06-25T20:12:17.003Z,47.30
2018-06-25T20:13:24.829Z,47.36
2018-06-25T20:14:31.240Z,47.88
2018-06-25T20:15:37.434Z,47.31
2018-06-25T20:16:43.614Z,47.83
2018-06-25T20:17:51.492Z,47.58
2018-06-25T20:19:00.030Z,47.89
2018-06-25T20:20:09.351Z,47.50
2018-06-25T20:21:15.439Z,48.00
2018-06-25T20:22:37.558Z,47.90
2018-06-25T20:23:48.668Z,47.49
2018-06-25T20:24:54.922Z,48.23
2018-06-25T20:26:03.245Z,48.10
2018-06-25T20:27:09.379Z,47.79
2018-06-25T20:28:16.633Z,48.14
2018-06-25T20:29:23.675Z,47.98
2018-06-25T20:30:29.765Z,47.98
2018-06-25T20:31:35.727Z,48.27
2018-06-25T20:32:45.499Z,48.70
2018-06-25T20:33:57.440Z,48.61
2018-06-25T20:35:12.699Z,47.80
2018-06-25T20:36:23.557Z,48.25
2018-06-25T20:37:31.093Z,48.39
2018-06-25T20:38:44.396Z,48.90
2018-06-25T20:39:50.567Z,48.09
2018-06-25T20:40:56.785Z,48.37
2018-06-25T20:42:03.064Z,48.84
2018-06-25T20:43:14.783Z,48.69
2018-06-25T20:44:20.909Z,48.56
2018-06-25T20:45:27.020Z,48.79
2018-06-25T20:46:35.269Z,48.35
2018-06-25T20:47:42.039Z,48.85
2018-06-25T20:48:49.593Z,48.80
2018-06-25T20:49:55.659Z,49.30
2018-06-25T20:51:01.798Z,49.35
2018-06-25T20:52:08.334Z,49.48
2018-06-25T20:53:14.988Z,49.04
2018-06-25T20:54:21.981Z,49.12
2018-06-25T20:55:29.140Z,49.74
2018-06-25T20:56:35.202Z,49.56
2018-06-25T20:57:45.945Z,49.67
2018-06-25T20:58:54.952Z,49.68
2018-06-25T21:00:03.668Z,49.56
2018-06-25T21:01:09.852Z,49.87
2018-06-25T21:02:16.076Z,50.58
2018-06-25T21:03:23.769Z,50.17
2018-06-25T21:04:31.511Z,50.65
2018-06-25T21:05:37.698Z,50.54
2018-06-25T21:06:43.918Z,50.13
2018-06-25T21:07:50.129Z,50.26
2018-06-25T21:08:56.171Z,51.07
2018-06-25T21:10:02.426Z,50.84
2018-06-25T21:11:09.877Z,50.92
2018-06-25T21:12:17.214Z,51.29
2018-06-25T21:13:26.739Z,50.79
2018-06-25T21:14:33.194Z,50.96
2018-06-25T21:15:40.991Z,51.06
2018-06-25T21:16:49.343Z,50.59
2018-06-25T21:17:57.222Z,50.32
2018-06-25T21:19:03.483Z,50.27
2018-06-25T21:20:09.791Z,50.74
2018-06-25T21:21:15.801Z,50.95
2018-06-25T21:22:23.357Z,50.35
2018-06-25T21:23:31.983Z,50.93
2018-06-25T21:24:38.107Z,51.27
2018-06-25T21:25:45.583Z,51.20
2018-06-25T21:26:51.687Z,50.75
2018-06-25T21:27:58.227Z,50.27
2018-06-25T21:29:05.007Z,50.95
2018-06-25T21:30:12.537Z,50.57
2018-06-25T21:31:22.759Z,50.15
2018-06-25T21:32:29.813Z,50.54
2018-06-25T21:33:35.941Z,50.82
2018-06-25T21:34:42.251Z,50.34
2018-06-25T21:35:54.055Z,50.41
2018-06-25T21:37:02.778Z,50.93
2018-06-25T21:38:09.068Z,50.20
2018-06-25T21:39:16.644Z,50.34
2018-06-25T21:40:22.796Z,50.02
2018-06-25T21:41:29.355Z,50.71
2018-06-25T21:42:36.075Z,50.35
2018-06-25T21:43:42.138Z,50.15
2018-06-25T21:44:48.109Z,49.94
2018-06-25T21:45:55.185Z,50.15
2018-06-25T21:47:01.487Z,50.47
2018-06-25T21:48:07.653Z,50.45
2018-06-25T21:49:14.923Z,49.73
2018-06-25T21:50:22.123Z,49.91
2018-06-25T21:51:28.817Z,50.64
2018-06-25T21:52:35.125Z,50.02
2018-06-25T21:53:41.367Z,49.77
2018-06-25T21:54:47.608Z,50.21
2018-06-25T21:55:54.595Z,49.70
2018-06-25T21:57:04.582Z,49.64
2018-06-25T21:58:10.847Z,50.26
2018-06-25T21:59:18.065Z,50.17
